Beaver County Airport


Codes: KBVI/BFP
Name: Beaver County Airport
City: Beaver Falls
Country: United States
Elevation: 1253 ft.
Wikipedia:

Photos at Beaver County Airport


   Photos courtesy of SpottingLog. You can add your own sightings and photos by signing up for a free trial today.



No photos found.

Weather at Beaver County Airport


Time (UTC)DescriptionTempratureWindCloud coverageVisibilityPressureHumidity
25-Jun-2024 15:00Scattered Clouds21°C11 mph, SW32%10000m1015hPa74%
25-Jun-2024 18:00Broken Clouds25°C13 mph, SW62%10000m1013hPa58%
25-Jun-2024 21:00Overcast Clouds29°C13 mph, SW100%10000m1010hPa49%
26-Jun-2024 00:00Light Rain21°C7 mph, SW100%10000m1010hPa85%
26-Jun-2024 03:00Light Rain18°C2 mph, SW82%10000m1010hPa90%
26-Jun-2024 06:00Broken Clouds19°C4 mph, SW67%10000m1010hPa97%
26-Jun-2024 09:00Moderate Rain19°C7 mph, W100%10000m1010hPa99%
26-Jun-2024 12:00Light Rain19°C4 mph, W100%10000m1010hPa97%
26-Jun-2024 15:00Light Rain24°C11 mph, SW98%10000m1010hPa75%
26-Jun-2024 18:00Moderate Rain21°C9 mph, W98%3189m1008hPa96%
26-Jun-2024 21:00Heavy Intensity Rain20°C13 mph, N100%0m1005hPa99%
27-Jun-2024 00:00Moderate Rain19°C7 mph, W100%10000m1006hPa96%
27-Jun-2024 03:00Overcast Clouds16°C4 mph, NW100%10000m1009hPa97%
27-Jun-2024 06:00Broken Clouds16°C2 mph, W74%10000m1009hPa97%
27-Jun-2024 09:00Scattered Clouds14°C4 mph, NW35%10000m1011hPa99%
27-Jun-2024 12:00Scattered Clouds15°C7 mph, NW27%10000m1013hPa95%
27-Jun-2024 15:00Few Clouds20°C7 mph, N13%10000m1013hPa64%
27-Jun-2024 18:00Clear Sky23°C7 mph, NW8%10000m1013hPa51%
27-Jun-2024 21:00Clear Sky24°C7 mph, NW1%10000m1013hPa50%
28-Jun-2024 00:00Few Clouds18°C7 mph, N18%10000m1014hPa75%
28-Jun-2024 03:00Broken Clouds12°C4 mph, N76%10000m1016hPa87%
28-Jun-2024 06:00Overcast Clouds11°C2 mph, NE87%10000m1016hPa88%
28-Jun-2024 09:00Overcast Clouds11°C4 mph, E97%10000m1016hPa89%
28-Jun-2024 12:00Overcast Clouds15°C4 mph, E98%10000m1016hPa77%
28-Jun-2024 15:00Broken Clouds24°C4 mph, SE55%10000m1014hPa54%
28-Jun-2024 18:00Broken Clouds29°C7 mph, S64%10000m1013hPa42%
28-Jun-2024 21:00Overcast Clouds30°C4 mph, S100%10000m1011hPa51%
29-Jun-2024 00:00Overcast Clouds24°C9 mph, SE100%10000m1011hPa79%
29-Jun-2024 03:00Moderate Rain21°C7 mph, S100%9185m1013hPa98%
29-Jun-2024 06:00Light Rain20°C4 mph, SE100%10000m1014hPa99%
29-Jun-2024 09:00Overcast Clouds20°C7 mph, SE100%10000m1013hPa99%
29-Jun-2024 12:00Overcast Clouds21°C7 mph, S100%10000m1014hPa97%
29-Jun-2024 15:00Light Rain22°C7 mph, SW100%10000m1014hPa98%
29-Jun-2024 18:00Light Rain24°C9 mph, S100%10000m1013hPa91%
29-Jun-2024 21:00Overcast Clouds28°C11 mph, SW96%10000m1012hPa69%
30-Jun-2024 00:00Light Rain24°C9 mph, W98%10000m1013hPa90%
30-Jun-2024 03:00Light Rain22°C7 mph, W100%10000m1015hPa98%
30-Jun-2024 06:00Light Rain21°C4 mph, W100%10000m1015hPa99%
30-Jun-2024 09:00Overcast Clouds17°C9 mph, NW98%10000m1017hPa97%
30-Jun-2024 12:00Broken Clouds17°C9 mph, NW83%10000m1019hPa94%